Latest Coastal Weather Observations for Adelaide Airport

IDS60701

Issued at 11:35 am CST Saturday 30 August 2014 (issued every 10 minutes, with the page automatically refreshed every 10 minutes)

About coastal observations | Map of coastal stations | Coastal observations for SA | Marine services | Other Formats
Station Details ID: 023034 Name: ADELAIDE AIRPORT Lat: -34.95 Lon: 138.52 Height: 2.0 m
Data from the previous 72 hours. | See also: Recent months at Adelaide Airport
Date/Time
CST
Temp

°C
Wind Pressure Rain
since 9am
mm
Weather Cloud Vis
km
Sea
Height
m
Swell
Dir
 
Speed
knots
Gust
knots
hPa Trend Height
m
Period
s
Dir
30/11:30am 22.6 NNW 9 14 1022.2 - 0.0 - - 10 - - - -
30/11:00am 22.2 N 10 14 1022.5 - 0.0 - - 10 - - - -
30/10:30am 21.1 N 11 15 1022.8 - 0.0 - - 10 - - - -
30/10:00am 20.2 NNE 9 13 1023.1 - 0.0 - - 10 - - - -
30/09:30am 17.8 NNE 7 9 1023.3 - 0.0 - - 10 - - - -
30/09:00am 15.6 N 5 6 1023.5 F 0.0 Haze Mostly clear 30 - - - -
30/08:30am 14.2 NNW 5 6 1023.4 - 0.0 - - 10 - - - -
30/08:00am 12.4 NW 4 9 1023.3 - 0.0 - - 10 - - - -
30/07:30am 9.9 NE 5 5 1023.1 - 0.0 - - 10 - - - -
30/07:00am 9.0 E 4 5 1023.1 - 0.0 - - 10 - - - -
30/06:30am 7.6 NE 6 7 1023.1 - 0.0 - - 10 - - - -
30/06:00am 7.8 NE 4 5 1023.0 F 0.0 Fine Clear 40 - - - -
30/05:30am 8.0 ENE 4 5 1023.2 - 0.0 - - 10 - - - -
30/05:00am 7.4 ENE 5 6 1023.3 - 0.0 - - 10 - - - -
30/04:30am 7.4 ENE 5 5 1023.3 - 0.0 - - 10 - - - -
30/04:00am 7.9 E 6 6 1023.3 - 0.0 - - 10 - - - -
30/03:30am 8.1 E 5 5 1023.1 - 0.0 - - 10 - - - -
30/03:00am 8.9 N 5 6 1023.1 F 0.0 Fine Clear 40 - - - -
30/02:30am 9.6 NW 5 5 1023.2 - 0.0 - - 10 - - - -
30/02:00am 9.0 CALM 0 0 1023.3 - 0.0 - - 10 - - - -
30/01:30am 9.2 CALM 0 0 1023.7 - 0.0 - - 10 - - - -
30/01:00am 10.0 WNW 3 4 1023.9 - 0.0 - - 10 - - - -
30/12:30am 10.8 ENE 2 4 1023.9 - 0.0 - - 10 - - - -
30/12:00am 10.8 E 0 0 1024.1 F 0.0 Fine Clear 40 - - - -
 
Date/Time
CST
Temp

°C
Wind Pressure Rain
since 9am
mm
Weather Cloud Vis
km
Sea
Height
m
Swell
Dir
 
Speed
knots
Gust
knots
hPa Trend Height
m
Period
s
Dir
29/11:30pm 11.5 CALM 0 0 1024.3 - 0.0 - - 10 - - - -
29/11:00pm 12.3 CALM 0 0 1024.4 - 0.0 - - 10 - - - -
29/10:30pm 14.2 NNW 5 6 1024.7 - 0.0 - - 10 - - - -
29/10:00pm 13.5 ENE 6 7 1024.8 - 0.0 - - 10 - - - -
29/09:30pm 12.4 E 7 8 1024.9 - 0.0 - - 10 - - - -
29/09:00pm 13.2 E 5 5 1025.0 - 0.0 - - 10 - - - -
29/08:30pm 13.6 E 3 4 1024.9 - 0.0 - - 10 - - - -
29/08:00pm 15.0 E 1 3 1024.8 - 0.0 - - 10 - - - -
29/07:30pm 15.4 SE 5 5 1024.8 - 0.0 - - 10 - - - -
29/07:00pm 17.0 S 5 6 1024.9 - 0.0 - - 10 - - - -
29/06:30pm 17.2 SSW 4 5 1024.8 - 0.0 - - 10 - - - -
29/06:00pm 19.1 SSW 5 5 1024.7 F 0.0 Fine Clear 40 - - - -
29/05:30pm 19.3 SSW 4 5 1024.7 - 0.0 - - 10 - - - -
29/05:00pm 20.2 SW 5 6 1024.8 - 0.0 - - 10 - - - -
29/04:30pm 20.7 SW 5 6 1024.9 - 0.0 - - 10 - - - -
29/04:00pm 20.7 SW 5 7 1024.9 - 0.0 - Mostly clear 10 - - - -
29/03:30pm 20.0 WSW 5 6 1025.0 - 0.0 - Mostly clear 10 - - - -
29/03:00pm 19.6 WSW 6 7 1025.3 F 0.0 Fine Mostly clear 35 - - - -
29/02:30pm 18.5 WSW 6 8 1025.6 - 0.0 - Mostly clear 10 - - - -
29/02:00pm 17.9 WSW 7 9 1025.9 - 0.0 - Mostly clear 10 - - - -
29/01:30pm 17.0 WSW 8 9 1026.3 - 0.0 - - 10 - - - -
29/01:00pm 17.9 WSW 7 9 1026.6 - 0.0 - - 10 - - - -
29/12:30pm 17.3 WSW 9 10 1027.1 - 0.0 - - 10 - - - -
29/12:00pm 17.3 W 9 13 1027.6 S 0.0 Fine Clear 30 - - - -
29/11:30am 19.2 N 8 10 1027.9 - 0.0 - - 10 - - - -
29/11:00am 22.3 N 9 12 1028.1 - 0.0 - - 10 - - - -
29/10:30am 20.7 N 5 6 1028.2 - 0.0 - - 10 - - - -
29/10:00am 18.2 N 3 5 1028.3 - 0.0 - - 10 - - - -
29/09:30am 16.6 NW 3 5 1028.5 - 0.0 - - 10 - - - -
29/09:00am 14.5 WSW 2 3 1028.6 F 0.0 Fine Clear 35 - - - -
29/08:30am 12.0 CALM 0 0 1028.5 - 0.0 - - 10 - - - -
29/08:00am 10.8 E 4 4 1028.5 - 0.0 - - 10 - - - -
29/07:30am 8.7 NNE 4 4 1028.3 - 0.0 - - 10 - - - -
29/07:00am 7.1 NE 5 6 1028.2 - 0.0 - - 10 - - - -
29/06:30am 6.2 ENE 5 5 1028.0 - 0.0 - - 10 - - - -
29/06:00am 6.5 N 3 4 1027.8 R 0.0 Fine Clear 35 - - - -
29/05:30am 7.7 N 4 5 1027.5 - 0.0 - - 10 - - - -
29/05:00am 7.1 E 3 3 1027.4 - 0.0 - - 10 - - - -
29/04:30am 7.5 SE 3 3 1027.3 - 0.0 - - 10 - - - -
29/04:00am 7.1 SSE 4 5 1027.4 - 0.0 - - 10 - - - -
29/03:30am 7.6 CALM 0 0 1027.2 - 0.0 - - 10 - - - -
29/03:00am 8.3 CALM 0 0 1027.3 R 0.0 Fine Clear 35 - - - -
29/02:30am 8.6 CALM 0 0 1027.2 - 0.0 - - 10 - - - -
29/02:00am 8.3 CALM 0 0 1027.5 - 0.0 - - 10 - - - -
29/01:30am 9.6 NE 4 4 1027.6 - 0.0 - - 10 - - - -
29/01:00am 9.0 CALM 0 4 1027.6 - 0.0 - - 10 - - - -
29/12:30am 9.8 N 4 5 1027.8 - 0.0 - - 10 - - - -
29/12:00am 10.2 E 2 4 1027.8 F 0.0 Fine Clear 35 - - - -
 
Date/Time
CST
Temp

°C
Wind Pressure Rain
since 9am
mm
Weather Cloud Vis
km
Sea
Height
m
Swell
Dir
 
Speed
knots
Gust
knots
hPa Trend Height
m
Period
s
Dir
28/11:30pm 10.5 ENE 4 5 1027.8 - 0.0 - - 10 - - - -
28/11:00pm 10.8 E 4 4 1027.8 - 0.0 - - 10 - - - -
28/10:30pm 11.8 E 4 5 1028.0 - 0.0 - - 10 - - - -
28/10:00pm 11.9 ESE 4 5 1028.1 - 0.0 - - 10 - - - -
28/09:30pm 12.8 CALM 0 2 1028.0 - 0.0 - - 10 - - - -
28/09:00pm 13.5 ESE 3 5 1028.0 R 0.0 Fine Clear 35 - - - -
28/08:30pm 14.1 SE 5 7 1028.0 - 0.0 - - 10 - - - -
28/08:00pm 14.1 SE 5 6 1027.8 - 0.0 - - 10 - - - -
28/07:30pm 14.5 SE 5 6 1027.5 - 0.0 - - 10 - - - -
28/07:00pm 14.6 CALM 0 4 1027.1 - 0.0 - - 10 - - - -
28/06:30pm 16.7 CALM 0 0 1027.0 - 0.0 - - 10 - - - -
28/06:00pm 18.3 SSE 3 4 1026.9 F 0.0 Fine Mostly clear 35 - - - -
28/05:30pm 19.4 SSE 4 4 1026.9 - 0.0 - - 10 - - - -
28/05:00pm 19.8 S 2 4 1026.9 - 0.0 - - 10 - - - -
28/04:30pm 19.1 SSW 5 6 1027.0 - 0.0 - - 10 - - - -
28/04:00pm 18.5 WSW 7 8 1027.0 - 0.0 - - 10 - - - -
28/03:30pm 18.6 SW 7 8 1026.9 - 0.0 - - 10 - - - -
28/03:00pm 18.6 WSW 6 8 1026.8 F 0.0 Fine Clear 35 - - - -
28/02:30pm 18.2 W 6 8 1026.8 - 0.0 - - 10 - - - -
28/02:00pm 17.4 WSW 6 9 1027.1 - 0.0 - - 10 - - - -
28/01:30pm 16.8 WSW 7 8 1027.4 - 0.0 - - 10 - - - -
28/01:00pm 16.6 WSW 8 10 1027.8 - 0.0 - - 10 - - - -
28/12:30pm 15.9 WSW 10 12 1028.2 - 0.0 - - 10 - - - -
28/12:00pm 16.6 WSW 9 10 1028.5 R 0.0 Fine Clear 35 - - - -
28/11:30am 17.8 N 8 10 1028.7 - 0.0 - - 10 - - - -
28/11:00am 20.3 N 7 9 1028.7 - 0.0 - - 10 - - - -
28/10:30am 19.7 N 6 9 1028.7 - 0.0 - - 10 - - - -
28/10:00am 17.5 NNE 4 6 1028.9 - 0.0 - - 10 - - - -
28/09:30am 15.7 NE 5 6 1029.0 - 0.0 - - 10 - - - -
28/09:00am 13.3 NE 5 6 1029.1 S 0.0 Haze Clear 25 - - - -
28/08:30am 12.0 NE 5 6 1029.2 - 0.0 - - 10 - - - -
28/08:00am 10.4 NNE 4 5 1029.0 - 0.0 - - 10 - - - -
28/07:30am 7.1 ENE 3 4 1028.8 - 0.0 - - 10 - - - -
28/07:00am 6.1 NE 1 4 1028.4 - 0.0 - - 10 - - - -
28/06:30am 5.8 CALM 0 0 1028.0 - 0.0 - - 10 - - - -
28/06:00am 5.6 NE 3 4 1027.6 R 0.0 Fine Clear 30 - - - -
28/05:30am 6.0 CALM 0 0 1027.6 - 0.0 - - 10 - - - -
28/05:00am 5.8 CALM 0 0 1027.5 - 0.0 - - 10 - - - -
28/04:30am 6.1 CALM 0 0 1027.4 - 0.0 - - 10 - - - -
28/04:00am 6.6 CALM 0 0 1027.3 - 0.0 - - 10 - - - -
28/03:30am 6.6 NE 1 4 1027.1 - 0.0 - - 10 - - - -
28/03:00am 7.2 ENE 2 7 1027.2 S 0.0 Fine Clear 30 - - - -
28/02:30am 7.2 CALM 0 0 1027.5 - 0.0 - - 10 - - - -
28/02:00am 7.7 E 3 4 1027.5 - 0.0 - - 10 - - - -
28/01:30am 7.4 E 4 5 1027.7 - 0.0 - - 10 - - - -
28/01:00am 7.9 CALM 0 0 1027.9 - 0.0 - - 10 - - - -
28/12:30am 7.9 CALM 0 0 1027.9 - 0.0 - - 10 - - - -
28/12:00am 8.5 CALM 0 0 1027.9 R 0.0 Fine Clear 30 - - - -
 
Date/Time
CST
Temp

°C
Wind Pressure Rain
since 9am
mm
Weather Cloud Vis
km
Sea
Height
m
Swell
Dir
 
Speed
knots
Gust
knots
hPa Trend Height
m
Period
s
Dir
27/11:30pm 9.4 CALM 0 0 1028.0 - 0.0 - - 10 - - - -
27/11:00pm 9.7 CALM 0 0 1028.0 - 0.0 - - 10 - - - -
27/10:30pm 10.3 CALM 0 0 1027.9 - 0.0 - - 10 - - - -
27/10:00pm 10.5 CALM 0 0 1027.9 - 0.0 - - 10 - - - -
27/09:30pm 11.2 CALM 0 0 1027.8 - 0.0 - - 10 - - - -
27/09:00pm 12.1 SE 4 5 1027.7 R 0.0 Fine Clear 30 - - - -
27/08:30pm 12.7 SE 4 4 1027.6 - 0.0 - - 10 - - - -
27/08:00pm 13.9 SSE 4 6 1027.5 - 0.0 - - 10 - - - -
27/07:30pm 14.5 SSE 2 5 1027.2 - 0.0 - - 10 - - - -
27/07:00pm 13.8 S 4 5 1026.9 - 0.0 - - 10 - - - -
27/06:30pm 13.6 S 6 7 1026.7 - 0.0 - - 10 - - - -
27/06:00pm 14.7 SW 6 6 1026.5 R 0.0 Fine Mostly clear 35 - - - -
27/05:30pm 17.3 WSW 5 5 1026.1 - 0.0 - - 10 - - - -
27/05:00pm 17.6 SW 4 5 1025.9 - 0.0 - - 10 - - - -
27/04:30pm 17.4 SSW 5 6 1025.8 - 0.0 - - 10 - - - -
27/04:00pm 16.1 SW 7 10 1025.8 - 0.0 - - 10 - - - -
27/03:30pm 16.2 SW 7 11 1025.8 - 0.0 - - 10 - - - -
27/03:00pm 16.2 SW 9 12 1025.8 F 0.0 Fine Mostly cloudy 30 - - - -
27/02:30pm 16.6 SW 8 10 1025.7 - 0.0 - - 10 - - - -
27/02:00pm 16.6 W 7 9 1025.7 - 0.0 - - 10 - - - -
27/01:30pm 16.3 SW 9 11 1026.0 - 0.0 - - 10 - - - -
27/01:00pm 17.2 W 5 8 1026.4 - 0.0 - - 10 - - - -
27/12:30pm 16.1 WSW 5 7 1026.9 - 0.0 - - 10 - - - -
27/12:00pm 15.2 WSW 7 8 1027.4 R 0.0 Fine Mostly cloudy 30 - - - -

Other Formats:

Comma delimited format used in spreadsheet applications
http://www.bom.gov.au/fwo/IDS60701/IDS60701.94672.axf

JavaScript Object Notation format (JSON) in row-major order
http://www.bom.gov.au/fwo/IDS60701/IDS60701.94672.json